Sterling/Rock Falls, Illinois
Current Conditions -  °F | °C
As of 1:35 PM on Saturday 25 Oct 2014 (Local Time) from KSQI Reporting Station
Clear Clear  
Wind Chill: 73°   Ceiling: Unl
Heat Index: 73°   Visibility: 10mi
Dew Point: 39°   Wind: 16mph
Humidity: 29%   Direction: 290°WNW
Pressure: 30"   Gusts: NA
Location:  41.73°N, 89.68°W
Report Text: KSQI 251835Z AUTO 29014KT 10SM CLR 23/04 A3000 RMK AO1
Loading
Personal Weather Stations






























Interactive Weather Map New forecast layout! Learn more

10-Day Weather Forecast

Advertisements
Track Severe Weather on mobile